Terminal Aerodrome Forecast
Issued by NWS

Home | Current Version | Previous Version | Text Only | Print | Product List | Glossary On
Versions: 1 2 3 4 5 6 7 8 9 10 11 12 13
056
FTUS45 KABQ 262328
TAFTCC
TAF
KTCC 262328Z 2700/2724 19011KT P6SM VCTS BKN090CB
      TEMPO 2700/2702 VRB15G30KT -TSRA BKN070CB
     FM270600 16010KT P6SM VCSH BKN100
     FM271000 07007KT P6SM -RA BKN060
     FM271500 04010KT 6SM -RA BR OVC040
     FM272100 09009KT P6SM VCSH OVC050=

USA.gov is the U.S. government's official web portal to all federal, state and local government web resources and services.